KMRN

Foothills Regional Airport

Morganton, North Carolina, USA
METAR KMRN 140500Z AUTO 00000KT 10SM OVC029 07/07 A3026 RMK AO2 T00720066
Observed Flight Rules
Nov-14 @ 05:00 UTC (26 minutes ago) Marginal Visual Flight Rules
Visibility Clouds
10 miles
  • Overcast at 2,900' AGL
Temperatures Readings
Current 7°C / 45°F
Dewpoint 7°C / 45°F
Humidity 100%
Altimeter 30.26" Hg
Pressure 1025 hPa
Elevation 387
METAR KMRN 140500Z AUTO 00000KT 10SM OVC029 07/07 A3026 RMK AO2 T00720066
Observed Flight Rules
Nov-14 @ 05:00 UTC
(26 minutes ago)
MVFR
Clouds
  • Overcast at 2,900' AGL
Temperature Dewpoint
7°C / 45°F 7°C / 45°F
Humidity Altimeter Pressure
100% 30.26" Hg 1025 hPa